Airfield :







YOU CAN JOIN US ON...

 
LOGIN :

Register | Disclaimer

   EN    FR    IT 

 









Legend :    VFR   Marginal VFR   IFR   Intensive IFR   Very Intensive IFR
Visi :
Ceiling :
>= 8 km
>= 3000ft
5 to 8 km
1000 to 3000 ft
1500m to 5 km
500 to 1000 ft
800 to 1500m
200 to 500 ft
< 800m
< 200 ft
Symbols :   Thunderstorms  Fog  Heavy snow  Heavy precipitations  Wind > 20 kt






- Airport Elevation : 1825 ft


K8B0 - Steven A. Bean Municipal

CURRENT METAR :
  • 092115Z AUTO 21003KT 5SM -RA SCT001 BKN008 OVC036 00/00 A2983 RMK AO2

EXPIRED METARs :
  • 092055Z AUTO 24004KT 3SM -DZ SCT001 BKN008 OVC019 00/00 A2985 RMK AO2 P0003
  • 092035Z AUTO 23004KT 3SM -DZ BKN008 BKN014 OVC021 00/00 A2986 RMK AO2 P0002
  • 092015Z AUTO 23005KT 4SM -RA SCT008 BKN022 OVC028 01/00 A2988 RMK AO2 P0002
  • 091955Z AUTO 18004KT 7SM -RA SCT016 BKN026 OVC035 02/01 A2990 RMK AO2 P0003
  • 091935Z AUTO 00000KT 4SM RA BKN037 OVC045 02/01 A2991 RMK AO2 P0002
  • 091915Z AUTO 00000KT 4SM RA SCT014 SCT020 OVC045 02/01 A2993 RMK AO2 P0001
  • 091855Z AUTO 17006KT 7SM -RA SCT020 SCT028 OVC044 02/01 A2995 RMK AO2 P0002
  • 091835Z AUTO 00000KT 10SM -RA OVC045 02/00 A2996 RMK AO2 P0001

TAF N/A



MET'MAP, your aeronautical weather chart ! - Copyright ORBIFLY December 2007 - Disclaimer

ORBIFLY MET'MAP TEAM :

Programming & Development : Alexandra Zaïnal
Concept & original design : Baudouin d'Aumeries
Assistance for programming : Marc-Olivier Méhu
Technical & hardware support : Manuel Goepfert

Contact : metmap@orbifly.com




SOURCES & CREDITS :

   NOAA